sensor_id;sensor_type;location;lat;lon;timestamp;temperature;humidity
2447;DHT22;26430;48.818;9.244;2023-02-18T00:02:07;12.30;99.90
2447;DHT22;26430;48.818;9.244;2023-02-18T00:04:33;12.30;99.90
2447;DHT22;26430;48.818;9.244;2023-02-18T00:06:58;12.30;99.90
2447;DHT22;26430;48.818;9.244;2023-02-18T00:09:24;12.30;99.90
2447;DHT22;26430;48.818;9.244;2023-02-18T00:11:50;12.30;99.90
2447;DHT22;26430;48.818;9.244;2023-02-18T00:14:16;12.20;99.90
2447;DHT22;26430;48.818;9.244;2023-02-18T00:16:43;12.30;99.90
2447;DHT22;26430;48.818;9.244;2023-02-18T00:19:13;12.20;99.90
2447;DHT22;26430;48.818;9.244;2023-02-18T00:21:41;12.20;99.90
2447;DHT22;26430;48.818;9.244;2023-02-18T00:24:08;12.20;99.90
2447;DHT22;26430;48.818;9.244;2023-02-18T00:26:34;12.30;99.90
2447;DHT22;26430;48.818;9.244;2023-02-18T00:29:01;12.20;99.90
2447;DHT22;26430;48.818;9.244;2023-02-18T00:31:30;12.20;99.90
2447;DHT22;26430;48.818;9.244;2023-02-18T00:33:57;12.20;99.90
2447;DHT22;26430;48.818;9.244;2023-02-18T00:36:24;12.20;99.90
2447;DHT22;26430;48.818;9.244;2023-02-18T00:38:53;12.20;99.90
2447;DHT22;26430;48.818;9.244;2023-02-18T00:41:21;12.20;99.90
2447;DHT22;26430;48.818;9.244;2023-02-18T00:43:47;12.10;99.90
2447;DHT22;26430;48.818;9.244;2023-02-18T00:46:13;12.10;99.90
2447;DHT22;26430;48.818;9.244;2023-02-18T00:48:39;12.10;99.90
2447;DHT22;26430;48.818;9.244;2023-02-18T00:51:06;12.10;99.90
2447;DHT22;26430;48.818;9.244;2023-02-18T00:53:33;12.10;99.90
2447;DHT22;26430;48.818;9.244;2023-02-18T00:55:59;12.10;99.90
2447;DHT22;26430;48.818;9.244;2023-02-18T00:58:25;12.10;99.90
2447;DHT22;26430;48.818;9.244;2023-02-18T01:00:51;12.10;99.90
2447;DHT22;26430;48.818;9.244;2023-02-18T01:03:16;12.10;99.90
2447;DHT22;26430;48.818;9.244;2023-02-18T01:05:43;12.10;99.90
2447;DHT22;26430;48.818;9.244;2023-02-18T01:08:09;12.20;99.90
2447;DHT22;26430;48.818;9.244;2023-02-18T01:10:41;12.20;99.90
2447;DHT22;26430;48.818;9.244;2023-02-18T01:13:07;12.10;99.90
2447;DHT22;26430;48.818;9.244;2023-02-18T01:15:33;12.20;99.90
2447;DHT22;26430;48.818;9.244;2023-02-18T01:17:58;12.20;99.90
2447;DHT22;26430;48.818;9.244;2023-02-18T01:20:25;12.20;99.90
2447;DHT22;26430;48.818;9.244;2023-02-18T01:22:51;12.20;99.90
2447;DHT22;26430;48.818;9.244;2023-02-18T01:25:17;12.20;99.90
2447;DHT22;26430;48.818;9.244;2023-02-18T01:27:43;12.20;99.90
2447;DHT22;26430;48.818;9.244;2023-02-18T01:30:11;12.20;99.90
2447;DHT22;26430;48.818;9.244;2023-02-18T01:32:38;12.20;99.90
2447;DHT22;26430;48.818;9.244;2023-02-18T01:35:05;12.20;99.90
2447;DHT22;26430;48.818;9.244;2023-02-18T01:37:30;12.20;99.90
2447;DHT22;26430;48.818;9.244;2023-02-18T01:39:56;12.20;99.90
2447;DHT22;26430;48.818;9.244;2023-02-18T01:42:25;12.20;99.90
2447;DHT22;26430;48.818;9.244;2023-02-18T01:44:51;12.20;99.90
2447;DHT22;26430;48.818;9.244;2023-02-18T01:47:17;12.20;99.90
2447;DHT22;26430;48.818;9.244;2023-02-18T01:49:51;12.20;99.90
2447;DHT22;26430;48.818;9.244;2023-02-18T01:52:23;12.30;99.90
2447;DHT22;26430;48.818;9.244;2023-02-18T01:54:54;12.30;99.90
2447;DHT22;26430;48.818;9.244;2023-02-18T01:57:23;12.20;99.90
2447;DHT22;26430;48.818;9.244;2023-02-18T02:00:02;12.20;99.90
2447;DHT22;26430;48.818;9.244;2023-02-18T02:02:29;12.10;99.90
2447;DHT22;26430;48.818;9.244;2023-02-18T02:04:56;12.20;99.90
2447;DHT22;26430;48.818;9.244;2023-02-18T02:07:23;12.30;99.90
2447;DHT22;26430;48.818;9.244;2023-02-18T02:09:51;12.30;99.90
2447;DHT22;26430;48.818;9.244;2023-02-18T02:15:21;12.20;99.90
2447;DHT22;26430;48.818;9.244;2023-02-18T02:20:44;12.20;99.90
2447;DHT22;26430;48.818;9.244;2023-02-18T02:37:27;12.20;99.90
2447;DHT22;26430;48.818;9.244;2023-02-18T02:42:38;12.00;99.90
2447;DHT22;26430;48.818;9.244;2023-02-18T02:45:27;12.00;99.90
2447;DHT22;26430;48.818;9.244;2023-02-18T02:48:07;12.10;99.90
2447;DHT22;26430;48.818;9.244;2023-02-18T02:50:44;12.10;99.90
2447;DHT22;26430;48.818;9.244;2023-02-18T02:53:15;12.00;99.90
2447;DHT22;26430;48.818;9.244;2023-02-18T02:55:45;12.00;99.90
2447;DHT22;26430;48.818;9.244;2023-02-18T02:58:16;12.00;99.90
2447;DHT22;26430;48.818;9.244;2023-02-18T03:00:55;12.00;99.90
2447;DHT22;26430;48.818;9.244;2023-02-18T03:09:42;12.00;99.90
2447;DHT22;26430;48.818;9.244;2023-02-18T03:17:17;12.00;99.90
2447;DHT22;26430;48.818;9.244;2023-02-18T03:20:33;12.00;99.90
2447;DHT22;26430;48.818;9.244;2023-02-18T03:22:48;12.00;99.90
2447;DHT22;26430;48.818;9.244;2023-02-18T03:25:15;11.90;99.90
2447;DHT22;26430;48.818;9.244;2023-02-18T03:27:57;11.90;99.90
2447;DHT22;26430;48.818;9.244;2023-02-18T03:30:28;11.90;99.90
2447;DHT22;26430;48.818;9.244;2023-02-18T03:32:57;11.90;99.90
2447;DHT22;26430;48.818;9.244;2023-02-18T03:35:24;11.90;99.90
2447;DHT22;26430;48.818;9.244;2023-02-18T03:37:56;11.90;99.90
2447;DHT22;26430;48.818;9.244;2023-02-18T03:40:26;11.90;99.90
2447;DHT22;26430;48.818;9.244;2023-02-18T03:42:52;11.90;99.90
2447;DHT22;26430;48.818;9.244;2023-02-18T03:45:18;11.90;99.90
2447;DHT22;26430;48.818;9.244;2023-02-18T03:47:44;11.90;99.90
2447;DHT22;26430;48.818;9.244;2023-02-18T03:50:10;11.90;99.90
2447;DHT22;26430;48.818;9.244;2023-02-18T03:52:35;11.90;99.90
2447;DHT22;26430;48.818;9.244;2023-02-18T03:55:03;11.90;99.90
2447;DHT22;26430;48.818;9.244;2023-02-18T03:57:29;11.80;99.90
2447;DHT22;26430;48.818;9.244;2023-02-18T03:59:55;11.70;99.90
2447;DHT22;26430;48.818;9.244;2023-02-18T04:02:20;11.70;99.90
2447;DHT22;26430;48.818;9.244;2023-02-18T04:04:49;11.70;99.90
2447;DHT22;26430;48.818;9.244;2023-02-18T04:07:14;11.60;99.90
2447;DHT22;26430;48.818;9.244;2023-02-18T04:09:40;11.60;99.90
2447;DHT22;26430;48.818;9.244;2023-02-18T04:12:05;11.50;99.90
2447;DHT22;26430;48.818;9.244;2023-02-18T04:14:31;11.50;99.90
2447;DHT22;26430;48.818;9.244;2023-02-18T04:16:57;11.50;99.90
2447;DHT22;26430;48.818;9.244;2023-02-18T04:19:22;11.60;99.90
2447;DHT22;26430;48.818;9.244;2023-02-18T04:21:48;11.60;99.90
2447;DHT22;26430;48.818;9.244;2023-02-18T04:24:14;11.50;99.90
2447;DHT22;26430;48.818;9.244;2023-02-18T04:26:39;11.50;99.90
2447;DHT22;26430;48.818;9.244;2023-02-18T04:29:05;11.50;99.90
2447;DHT22;26430;48.818;9.244;2023-02-18T04:31:31;11.50;99.90
2447;DHT22;26430;48.818;9.244;2023-02-18T04:33:56;11.40;99.90
2447;DHT22;26430;48.818;9.244;2023-02-18T04:36:22;11.50;99.90
2447;DHT22;26430;48.818;9.244;2023-02-18T04:38:48;11.40;99.90
2447;DHT22;26430;48.818;9.244;2023-02-18T04:41:13;11.30;99.90
2447;DHT22;26430;48.818;9.244;2023-02-18T04:43:39;11.30;99.90
2447;DHT22;26430;48.818;9.244;2023-02-18T04:46:04;11.20;99.90
2447;DHT22;26430;48.818;9.244;2023-02-18T04:48:30;11.10;99.90
2447;DHT22;26430;48.818;9.244;2023-02-18T04:50:56;11.10;99.90
2447;DHT22;26430;48.818;9.244;2023-02-18T04:53:21;11.10;99.90
2447;DHT22;26430;48.818;9.244;2023-02-18T04:55:51;11.00;99.90
2447;DHT22;26430;48.818;9.244;2023-02-18T04:58:17;11.00;99.90
2447;DHT22;26430;48.818;9.244;2023-02-18T05:00:43;11.00;99.90
2447;DHT22;26430;48.818;9.244;2023-02-18T05:03:09;11.00;99.90
2447;DHT22;26430;48.818;9.244;2023-02-18T05:05:35;10.90;99.90
2447;DHT22;26430;48.818;9.244;2023-02-18T05:08:00;11.00;99.90
2447;DHT22;26430;48.818;9.244;2023-02-18T05:10:26;10.90;99.90
2447;DHT22;26430;48.818;9.244;2023-02-18T05:12:52;11.00;99.90
2447;DHT22;26430;48.818;9.244;2023-02-18T05:15:18;10.90;99.90
2447;DHT22;26430;48.818;9.244;2023-02-18T05:17:43;10.90;99.90
2447;DHT22;26430;48.818;9.244;2023-02-18T05:20:09;10.90;99.90
2447;DHT22;26430;48.818;9.244;2023-02-18T05:22:35;10.90;99.90
2447;DHT22;26430;48.818;9.244;2023-02-18T05:25:01;10.80;99.90
2447;DHT22;26430;48.818;9.244;2023-02-18T05:27:27;10.90;99.90
2447;DHT22;26430;48.818;9.244;2023-02-18T05:29:52;10.90;99.90
2447;DHT22;26430;48.818;9.244;2023-02-18T05:32:18;10.70;99.90
2447;DHT22;26430;48.818;9.244;2023-02-18T05:34:43;10.70;99.90
2447;DHT22;26430;48.818;9.244;2023-02-18T05:37:09;10.60;99.90
2447;DHT22;26430;48.818;9.244;2023-02-18T05:39:35;10.60;99.90
2447;DHT22;26430;48.818;9.244;2023-02-18T05:42:00;10.60;99.90
2447;DHT22;26430;48.818;9.244;2023-02-18T05:44:26;10.60;99.90
2447;DHT22;26430;48.818;9.244;2023-02-18T05:46:55;10.60;99.90
2447;DHT22;26430;48.818;9.244;2023-02-18T05:49:21;10.60;99.90
2447;DHT22;26430;48.818;9.244;2023-02-18T05:51:47;10.60;99.90
2447;DHT22;26430;48.818;9.244;2023-02-18T05:54:13;10.60;99.90
2447;DHT22;26430;48.818;9.244;2023-02-18T05:56:38;10.60;99.90
2447;DHT22;26430;48.818;9.244;2023-02-18T05:59:04;10.60;99.90
2447;DHT22;26430;48.818;9.244;2023-02-18T06:01:29;10.50;99.90
2447;DHT22;26430;48.818;9.244;2023-02-18T06:03:55;10.60;99.90
2447;DHT22;26430;48.818;9.244;2023-02-18T06:06:21;10.60;99.90
2447;DHT22;26430;48.818;9.244;2023-02-18T06:08:46;10.60;99.90
2447;DHT22;26430;48.818;9.244;2023-02-18T06:11:12;10.60;99.90
2447;DHT22;26430;48.818;9.244;2023-02-18T06:13:37;10.50;99.90
2447;DHT22;26430;48.818;9.244;2023-02-18T06:16:03;10.50;99.90
2447;DHT22;26430;48.818;9.244;2023-02-18T06:18:29;10.50;99.90
2447;DHT22;26430;48.818;9.244;2023-02-18T06:20:55;10.50;99.90
2447;DHT22;26430;48.818;9.244;2023-02-18T06:23:20;10.60;99.90
2447;DHT22;26430;48.818;9.244;2023-02-18T06:25:48;10.70;99.90
2447;DHT22;26430;48.818;9.244;2023-02-18T06:28:14;10.80;99.90
2447;DHT22;26430;48.818;9.244;2023-02-18T06:30:40;10.70;99.90
2447;DHT22;26430;48.818;9.244;2023-02-18T06:33:06;10.80;99.90
2447;DHT22;26430;48.818;9.244;2023-02-18T06:35:32;10.90;99.90
2447;DHT22;26430;48.818;9.244;2023-02-18T06:37:58;10.90;99.90
2447;DHT22;26430;48.818;9.244;2023-02-18T06:40:23;10.80;99.90
2447;DHT22;26430;48.818;9.244;2023-02-18T06:42:49;10.80;99.90
2447;DHT22;26430;48.818;9.244;2023-02-18T06:45:14;10.80;99.90
2447;DHT22;26430;48.818;9.244;2023-02-18T06:47:40;10.70;99.90
2447;DHT22;26430;48.818;9.244;2023-02-18T06:50:06;10.70;99.90
2447;DHT22;26430;48.818;9.244;2023-02-18T06:52:34;10.70;99.90
2447;DHT22;26430;48.818;9.244;2023-02-18T06:55:00;10.70;99.90
2447;DHT22;26430;48.818;9.244;2023-02-18T06:57:25;10.70;99.90
2447;DHT22;26430;48.818;9.244;2023-02-18T06:59:51;10.70;99.90
2447;DHT22;26430;48.818;9.244;2023-02-18T07:02:17;10.70;99.90
2447;DHT22;26430;48.818;9.244;2023-02-18T07:04:42;10.80;99.90
2447;DHT22;26430;48.818;9.244;2023-02-18T07:07:09;10.80;99.90
2447;DHT22;26430;48.818;9.244;2023-02-18T07:09:35;10.80;99.90
2447;DHT22;26430;48.818;9.244;2023-02-18T07:12:01;10.90;99.90
2447;DHT22;26430;48.818;9.244;2023-02-18T07:14:27;10.90;99.90
2447;DHT22;26430;48.818;9.244;2023-02-18T07:16:52;11.00;99.90
2447;DHT22;26430;48.818;9.244;2023-02-18T07:19:18;11.00;99.90
2447;DHT22;26430;48.818;9.244;2023-02-18T07:21:44;11.20;99.90
2447;DHT22;26430;48.818;9.244;2023-02-18T07:24:09;11.10;99.90
2447;DHT22;26430;48.818;9.244;2023-02-18T07:26:35;11.10;99.90
2447;DHT22;26430;48.818;9.244;2023-02-18T07:29:01;11.20;99.90
2447;DHT22;26430;48.818;9.244;2023-02-18T07:31:26;11.20;99.90
2447;DHT22;26430;48.818;9.244;2023-02-18T07:33:53;11.30;99.90
2447;DHT22;26430;48.818;9.244;2023-02-18T07:36:18;11.40;99.90
2447;DHT22;26430;48.818;9.244;2023-02-18T07:38:44;11.40;99.90
2447;DHT22;26430;48.818;9.244;2023-02-18T07:41:18;11.50;99.90
2447;DHT22;26430;48.818;9.244;2023-02-18T07:43:44;11.50;99.90
2447;DHT22;26430;48.818;9.244;2023-02-18T07:46:09;11.50;99.90
2447;DHT22;26430;48.818;9.244;2023-02-18T07:48:35;11.50;99.90
2447;DHT22;26430;48.818;9.244;2023-02-18T07:51:08;11.50;99.90
2447;DHT22;26430;48.818;9.244;2023-02-18T07:53:35;11.50;99.90
2447;DHT22;26430;48.818;9.244;2023-02-18T07:56:01;11.50;99.90
2447;DHT22;26430;48.818;9.244;2023-02-18T07:58:30;11.60;99.90
2447;DHT22;26430;48.818;9.244;2023-02-18T08:00:57;11.60;99.90
2447;DHT22;26430;48.818;9.244;2023-02-18T08:03:28;11.60;99.90
2447;DHT22;26430;48.818;9.244;2023-02-18T08:05:54;11.70;99.90
2447;DHT22;26430;48.818;9.244;2023-02-18T08:08:23;11.80;99.90
2447;DHT22;26430;48.818;9.244;2023-02-18T08:10:49;11.90;99.90
2447;DHT22;26430;48.818;9.244;2023-02-18T08:13:15;12.00;99.90
2447;DHT22;26430;48.818;9.244;2023-02-18T08:15:41;12.00;99.90
2447;DHT22;26430;48.818;9.244;2023-02-18T08:18:12;12.00;99.90
2447;DHT22;26430;48.818;9.244;2023-02-18T08:20:39;12.00;99.90
2447;DHT22;26430;48.818;9.244;2023-02-18T08:23:04;12.10;99.90
2447;DHT22;26430;48.818;9.244;2023-02-18T08:25:31;12.20;99.90
2447;DHT22;26430;48.818;9.244;2023-02-18T08:27:57;12.20;99.90
2447;DHT22;26430;48.818;9.244;2023-02-18T08:30:23;12.20;99.90
2447;DHT22;26430;48.818;9.244;2023-02-18T08:32:48;12.20;99.90
2447;DHT22;26430;48.818;9.244;2023-02-18T08:35:14;12.30;99.90
2447;DHT22;26430;48.818;9.244;2023-02-18T08:37:40;12.30;99.90
2447;DHT22;26430;48.818;9.244;2023-02-18T08:40:06;12.40;99.90
2447;DHT22;26430;48.818;9.244;2023-02-18T08:42:32;12.40;99.90
2447;DHT22;26430;48.818;9.244;2023-02-18T08:44:57;12.50;99.90
2447;DHT22;26430;48.818;9.244;2023-02-18T08:47:24;12.50;99.90
2447;DHT22;26430;48.818;9.244;2023-02-18T08:49:52;12.50;99.90
2447;DHT22;26430;48.818;9.244;2023-02-18T08:52:17;12.60;99.90
2447;DHT22;26430;48.818;9.244;2023-02-18T08:54:43;12.60;99.90
2447;DHT22;26430;48.818;9.244;2023-02-18T08:57:09;12.80;99.90
2447;DHT22;26430;48.818;9.244;2023-02-18T08:59:34;12.80;99.90
2447;DHT22;26430;48.818;9.244;2023-02-18T09:02:00;12.90;99.90
2447;DHT22;26430;48.818;9.244;2023-02-18T09:04:26;12.90;99.90
2447;DHT22;26430;48.818;9.244;2023-02-18T09:06:51;12.90;99.90
2447;DHT22;26430;48.818;9.244;2023-02-18T09:09:17;13.00;99.90
2447;DHT22;26430;48.818;9.244;2023-02-18T09:11:43;12.90;99.90
2447;DHT22;26430;48.818;9.244;2023-02-18T09:14:11;13.00;99.90
2447;DHT22;26430;48.818;9.244;2023-02-18T09:16:38;13.00;99.90
2447;DHT22;26430;48.818;9.244;2023-02-18T09:19:05;13.10;99.90
2447;DHT22;26430;48.818;9.244;2023-02-18T09:21:30;13.30;99.90
2447;DHT22;26430;48.818;9.244;2023-02-18T09:23:56;13.40;99.90
2447;DHT22;26430;48.818;9.244;2023-02-18T09:26:22;13.60;99.90
2447;DHT22;26430;48.818;9.244;2023-02-18T09:28:50;13.70;99.90
2447;DHT22;26430;48.818;9.244;2023-02-18T09:31:18;13.60;99.90
2447;DHT22;26430;48.818;9.244;2023-02-18T09:34:05;13.60;99.90
2447;DHT22;26430;48.818;9.244;2023-02-18T09:36:31;13.90;99.90
2447;DHT22;26430;48.818;9.244;2023-02-18T09:38:57;13.90;99.90
2447;DHT22;26430;48.818;9.244;2023-02-18T09:41:55;14.00;99.90
2447;DHT22;26430;48.818;9.244;2023-02-18T09:47:01;13.70;99.90
2447;DHT22;26430;48.818;9.244;2023-02-18T09:49:31;13.80;99.90
2447;DHT22;26430;48.818;9.244;2023-02-18T09:54:36;13.70;99.90
2447;DHT22;26430;48.818;9.244;2023-02-18T09:57:02;13.70;99.90
2447;DHT22;26430;48.818;9.244;2023-02-18T09:59:30;13.80;99.90
2447;DHT22;26430;48.818;9.244;2023-02-18T10:01:56;13.80;99.90
2447;DHT22;26430;48.818;9.244;2023-02-18T10:04:38;13.80;99.90
2447;DHT22;26430;48.818;9.244;2023-02-18T10:07:05;13.90;99.90
2447;DHT22;26430;48.818;9.244;2023-02-18T10:09:36;13.80;99.90
2447;DHT22;26430;48.818;9.244;2023-02-18T10:12:15;13.90;99.90
2447;DHT22;26430;48.818;9.244;2023-02-18T10:14:49;14.00;99.90
2447;DHT22;26430;48.818;9.244;2023-02-18T10:17:16;14.10;99.90
2447;DHT22;26430;48.818;9.244;2023-02-18T10:19:43;13.90;99.90
2447;DHT22;26430;48.818;9.244;2023-02-18T10:22:12;13.80;99.90
2447;DHT22;26430;48.818;9.244;2023-02-18T10:24:45;13.70;99.90
2447;DHT22;26430;48.818;9.244;2023-02-18T10:27:20;13.70;99.90
2447;DHT22;26430;48.818;9.244;2023-02-18T10:29:48;13.70;99.90
2447;DHT22;26430;48.818;9.244;2023-02-18T10:32:23;13.80;99.90
2447;DHT22;26430;48.818;9.244;2023-02-18T10:34:58;13.80;99.90
2447;DHT22;26430;48.818;9.244;2023-02-18T10:40:41;13.80;99.90
2447;DHT22;26430;48.818;9.244;2023-02-18T10:43:22;13.90;99.90
2447;DHT22;26430;48.818;9.244;2023-02-18T10:48:42;13.80;99.90
2447;DHT22;26430;48.818;9.244;2023-02-18T10:51:20;13.80;99.90
2447;DHT22;26430;48.818;9.244;2023-02-18T10:53:48;13.90;99.90
2447;DHT22;26430;48.818;9.244;2023-02-18T10:56:38;13.90;99.90
2447;DHT22;26430;48.818;9.244;2023-02-18T10:59:24;14.00;99.90
2447;DHT22;26430;48.818;9.244;2023-02-18T11:02:02;13.90;99.90
2447;DHT22;26430;48.818;9.244;2023-02-18T11:04:38;13.90;99.90
2447;DHT22;26430;48.818;9.244;2023-02-18T11:07:19;13.90;99.90
2447;DHT22;26430;48.818;9.244;2023-02-18T11:15:06;14.00;99.90
2447;DHT22;26430;48.818;9.244;2023-02-18T11:17:41;14.10;99.90
2447;DHT22;26430;48.818;9.244;2023-02-18T11:20:27;14.10;99.90
2447;DHT22;26430;48.818;9.244;2023-02-18T11:25:37;14.00;99.90
2447;DHT22;26430;48.818;9.244;2023-02-18T11:28:32;14.10;99.90
2447;DHT22;26430;48.818;9.244;2023-02-18T11:31:01;14.10;99.90
2447;DHT22;26430;48.818;9.244;2023-02-18T11:33:40;14.20;99.90
2447;DHT22;26430;48.818;9.244;2023-02-18T11:36:31;14.30;99.90
2447;DHT22;26430;48.818;9.244;2023-02-18T11:39:11;14.40;99.90
2447;DHT22;26430;48.818;9.244;2023-02-18T11:41:45;14.40;99.90
2447;DHT22;26430;48.818;9.244;2023-02-18T11:44:26;14.40;99.90
2447;DHT22;26430;48.818;9.244;2023-02-18T11:47:02;14.40;99.90
2447;DHT22;26430;48.818;9.244;2023-02-18T11:49:29;14.40;99.90
2447;DHT22;26430;48.818;9.244;2023-02-18T11:54:59;14.30;99.90
2447;DHT22;26430;48.818;9.244;2023-02-18T11:57:27;14.40;99.90
2447;DHT22;26430;48.818;9.244;2023-02-18T11:59:53;14.50;99.90
2447;DHT22;26430;48.818;9.244;2023-02-18T12:07:47;14.40;99.90
2447;DHT22;26430;48.818;9.244;2023-02-18T12:10:24;14.40;99.90
2447;DHT22;26430;48.818;9.244;2023-02-18T12:13:15;14.40;99.90
2447;DHT22;26430;48.818;9.244;2023-02-18T12:18:45;14.40;99.90
2447;DHT22;26430;48.818;9.244;2023-02-18T12:24:27;14.40;99.90
2447;DHT22;26430;48.818;9.244;2023-02-18T12:27:04;14.50;99.90
2447;DHT22;26430;48.818;9.244;2023-02-18T12:41:01;14.60;99.90
2447;DHT22;26430;48.818;9.244;2023-02-18T12:59:27;14.50;99.90
2447;DHT22;26430;48.818;9.244;2023-02-18T13:05:01;14.50;99.90
2447;DHT22;26430;48.818;9.244;2023-02-18T13:13:25;14.40;99.90
2447;DHT22;26430;48.818;9.244;2023-02-18T13:15:58;14.40;99.90
2447;DHT22;26430;48.818;9.244;2023-02-18T13:21:13;14.40;99.90
2447;DHT22;26430;48.818;9.244;2023-02-18T13:23:53;14.40;99.90
2447;DHT22;26430;48.818;9.244;2023-02-18T13:26:20;14.30;99.90
2447;DHT22;26430;48.818;9.244;2023-02-18T13:29:01;14.50;99.90
2447;DHT22;26430;48.818;9.244;2023-02-18T13:34:31;14.70;99.90
2447;DHT22;26430;48.818;9.244;2023-02-18T13:37:06;14.70;99.90
2447;DHT22;26430;48.818;9.244;2023-02-18T13:39:35;14.60;99.90
2447;DHT22;26430;48.818;9.244;2023-02-18T13:47:40;14.50;99.90
2447;DHT22;26430;48.818;9.244;2023-02-18T13:53:12;14.50;99.90
2447;DHT22;26430;48.818;9.244;2023-02-18T13:58:43;14.70;99.90
2447;DHT22;26430;48.818;9.244;2023-02-18T14:01:21;14.80;99.90
2447;DHT22;26430;48.818;9.244;2023-02-18T14:03:58;14.90;99.90
2447;DHT22;26430;48.818;9.244;2023-02-18T14:06:35;14.90;99.90
2447;DHT22;26430;48.818;9.244;2023-02-18T14:09:33;14.80;99.90
2447;DHT22;26430;48.818;9.244;2023-02-18T14:11:53;14.80;99.90
2447;DHT22;26430;48.818;9.244;2023-02-18T14:22:48;15.00;99.90
2447;DHT22;26430;48.818;9.244;2023-02-18T14:27:50;15.10;99.90
2447;DHT22;26430;48.818;9.244;2023-02-18T14:30:25;15.10;99.90
2447;DHT22;26430;48.818;9.244;2023-02-18T14:32:58;15.10;99.90
2447;DHT22;26430;48.818;9.244;2023-02-18T14:35:38;15.00;99.90
2447;DHT22;26430;48.818;9.244;2023-02-18T14:41:21;15.00;99.90
2447;DHT22;26430;48.818;9.244;2023-02-18T14:43:57;14.90;99.90
2447;DHT22;26430;48.818;9.244;2023-02-18T14:52:05;15.10;99.90
2447;DHT22;26430;48.818;9.244;2023-02-18T14:54:35;15.00;99.90
2447;DHT22;26430;48.818;9.244;2023-02-18T14:57:08;14.90;99.90
2447;DHT22;26430;48.818;9.244;2023-02-18T14:59:43;14.80;99.90
2447;DHT22;26430;48.818;9.244;2023-02-18T15:02:17;14.70;99.90
2447;DHT22;26430;48.818;9.244;2023-02-18T15:04:43;14.60;99.90
2447;DHT22;26430;48.818;9.244;2023-02-18T15:07:10;14.60;99.90
2447;DHT22;26430;48.818;9.244;2023-02-18T15:09:44;14.50;99.90
2447;DHT22;26430;48.818;9.244;2023-02-18T15:12:17;14.60;99.90
2447;DHT22;26430;48.818;9.244;2023-02-18T15:14:46;14.60;99.90
2447;DHT22;26430;48.818;9.244;2023-02-18T15:17:16;14.50;99.90
2447;DHT22;26430;48.818;9.244;2023-02-18T15:19:50;14.40;99.90
2447;DHT22;26430;48.818;9.244;2023-02-18T15:22:22;14.40;99.90
2447;DHT22;26430;48.818;9.244;2023-02-18T15:24:49;14.40;99.90
2447;DHT22;26430;48.818;9.244;2023-02-18T15:27:29;14.30;99.90
2447;DHT22;26430;48.818;9.244;2023-02-18T15:29:58;14.30;99.90
2447;DHT22;26430;48.818;9.244;2023-02-18T15:32:30;14.20;99.90
2447;DHT22;26430;48.818;9.244;2023-02-18T15:35:01;14.00;99.90
2447;DHT22;26430;48.818;9.244;2023-02-18T15:37:28;14.00;99.90
2447;DHT22;26430;48.818;9.244;2023-02-18T15:39:54;14.00;99.90
2447;DHT22;26430;48.818;9.244;2023-02-18T15:42:31;14.10;99.90
2447;DHT22;26430;48.818;9.244;2023-02-18T15:45:03;14.00;99.90
2447;DHT22;26430;48.818;9.244;2023-02-18T15:47:30;14.00;99.90
2447;DHT22;26430;48.818;9.244;2023-02-18T15:49:58;14.00;99.90
2447;DHT22;26430;48.818;9.244;2023-02-18T15:52:31;14.00;99.90
2447;DHT22;26430;48.818;9.244;2023-02-18T15:55:03;13.80;99.90
2447;DHT22;26430;48.818;9.244;2023-02-18T15:57:29;13.80;99.90
2447;DHT22;26430;48.818;9.244;2023-02-18T16:00:17;13.80;99.90
2447;DHT22;26430;48.818;9.244;2023-02-18T16:03:12;13.80;99.90
2447;DHT22;26430;48.818;9.244;2023-02-18T16:05:38;13.80;99.90
2447;DHT22;26430;48.818;9.244;2023-02-18T16:08:14;13.80;99.90
2447;DHT22;26430;48.818;9.244;2023-02-18T16:10:45;13.70;99.90
2447;DHT22;26430;48.818;9.244;2023-02-18T16:13:13;13.70;99.90
2447;DHT22;26430;48.818;9.244;2023-02-18T16:15:44;13.70;99.90
2447;DHT22;26430;48.818;9.244;2023-02-18T16:18:38;13.70;99.90
2447;DHT22;26430;48.818;9.244;2023-02-18T16:21:46;13.70;99.90
2447;DHT22;26430;48.818;9.244;2023-02-18T16:24:40;13.70;99.90
2447;DHT22;26430;48.818;9.244;2023-02-18T16:27:13;13.60;99.90
2447;DHT22;26430;48.818;9.244;2023-02-18T16:29:41;13.50;99.90
2447;DHT22;26430;48.818;9.244;2023-02-18T16:32:07;13.50;99.90
2447;DHT22;26430;48.818;9.244;2023-02-18T16:34:32;13.50;99.90
2447;DHT22;26430;48.818;9.244;2023-02-18T16:37:00;13.50;99.90
2447;DHT22;26430;48.818;9.244;2023-02-18T16:39:50;13.50;99.90
2447;DHT22;26430;48.818;9.244;2023-02-18T16:42:18;13.50;99.90
2447;DHT22;26430;48.818;9.244;2023-02-18T16:44:44;13.40;99.90
2447;DHT22;26430;48.818;9.244;2023-02-18T16:47:14;13.40;99.90
2447;DHT22;26430;48.818;9.244;2023-02-18T16:49:44;13.40;99.90
2447;DHT22;26430;48.818;9.244;2023-02-18T16:52:12;13.40;99.90
2447;DHT22;26430;48.818;9.244;2023-02-18T16:54:39;13.40;99.90
2447;DHT22;26430;48.818;9.244;2023-02-18T16:57:05;13.30;99.90
2447;DHT22;26430;48.818;9.244;2023-02-18T16:59:31;13.30;99.90
2447;DHT22;26430;48.818;9.244;2023-02-18T17:01:56;13.30;99.90
2447;DHT22;26430;48.818;9.244;2023-02-18T17:04:22;13.20;99.90
2447;DHT22;26430;48.818;9.244;2023-02-18T17:06:48;13.30;99.90
2447;DHT22;26430;48.818;9.244;2023-02-18T17:09:19;13.30;99.90
2447;DHT22;26430;48.818;9.244;2023-02-18T17:11:48;13.30;99.90
2447;DHT22;26430;48.818;9.244;2023-02-18T17:14:18;13.20;99.90
2447;DHT22;26430;48.818;9.244;2023-02-18T17:16:45;13.30;99.90
2447;DHT22;26430;48.818;9.244;2023-02-18T17:19:11;13.30;99.90
2447;DHT22;26430;48.818;9.244;2023-02-18T17:21:37;13.30;99.90
2447;DHT22;26430;48.818;9.244;2023-02-18T17:24:03;13.30;99.90
2447;DHT22;26430;48.818;9.244;2023-02-18T17:26:29;13.20;99.90
2447;DHT22;26430;48.818;9.244;2023-02-18T17:28:57;13.20;99.90
2447;DHT22;26430;48.818;9.244;2023-02-18T17:31:33;13.20;99.90
2447;DHT22;26430;48.818;9.244;2023-02-18T17:34:03;13.20;99.90
2447;DHT22;26430;48.818;9.244;2023-02-18T17:36:29;13.30;99.90
2447;DHT22;26430;48.818;9.244;2023-02-18T17:38:55;13.30;99.90
2447;DHT22;26430;48.818;9.244;2023-02-18T17:41:21;13.20;99.90
2447;DHT22;26430;48.818;9.244;2023-02-18T17:43:47;13.30;99.90
2447;DHT22;26430;48.818;9.244;2023-02-18T17:46:15;13.10;99.90
2447;DHT22;26430;48.818;9.244;2023-02-18T17:48:43;13.20;99.90
2447;DHT22;26430;48.818;9.244;2023-02-18T17:51:22;13.10;99.90
2447;DHT22;26430;48.818;9.244;2023-02-18T17:53:48;13.10;99.90
2447;DHT22;26430;48.818;9.244;2023-02-18T17:56:14;13.10;99.90
2447;DHT22;26430;48.818;9.244;2023-02-18T17:58:40;13.10;99.90
2447;DHT22;26430;48.818;9.244;2023-02-18T18:01:07;13.00;99.90
2447;DHT22;26430;48.818;9.244;2023-02-18T18:03:33;12.90;99.90
2447;DHT22;26430;48.818;9.244;2023-02-18T18:05:59;13.00;99.90
2447;DHT22;26430;48.818;9.244;2023-02-18T18:08:25;12.90;99.90
2447;DHT22;26430;48.818;9.244;2023-02-18T18:10:53;13.00;99.90
2447;DHT22;26430;48.818;9.244;2023-02-18T18:13:28;12.80;99.90
2447;DHT22;26430;48.818;9.244;2023-02-18T18:15:54;12.90;99.90
2447;DHT22;26430;48.818;9.244;2023-02-18T18:18:20;12.80;99.90
2447;DHT22;26430;48.818;9.244;2023-02-18T18:20:49;12.80;99.90